Time;durP1;ratioP1;P1;durP2;ratioP2;P2;SDS_P1;SDS_P2;PMS_P1;PMS_P2;Temp;Humidity;BMP_temperature;BMP_pressure;BME280_temperature;BME280_humidity;BME280_pressure;Samples;Min_cycle;Max_cycle;Signal;HPM_P1;HPM_P2
2022/02/06 00:01:33;;;;;;;19.85;5.30;;;7.70;99.90;;;;;;5096188;28;20020;-83
2022/02/06 00:03:59;;;;;;;13.82;4.18;;;7.70;99.90;;;;;;5045040;28;20121;-83
2022/02/06 00:06:25;;;;;;;19.70;4.85;;;7.80;99.90;;;;;;5061025;28;20482;-83
2022/02/06 00:08:51;;;;;;;21.83;6.28;;;7.80;99.90;;;;;;5060789;28;20460;-83
2022/02/06 00:11:16;;;;;;;20.00;5.60;;;7.80;99.90;;;;;;5077566;28;20472;-82
2022/02/06 00:13:42;;;;;;;18.48;4.80;;;7.80;99.90;;;;;;5060605;28;20027;-88
2022/02/06 00:16:08;;;;;;;19.63;5.38;;;7.80;99.90;;;;;;5060648;28;20384;-83
2022/02/06 00:18:34;;;;;;;17.80;4.45;;;7.80;99.90;;;;;;5060918;28;20058;-83
2022/02/06 00:21:05;;;;;;;20.77;5.05;;;7.80;99.90;;;;;;5077279;28;20159;-83
2022/02/06 00:23:33;;;;;;;19.13;5.60;;;7.80;99.90;;;;;;5045526;28;20024;-83
2022/02/06 00:26:08;;;;;;;13.63;4.80;;;7.80;99.90;;;;;;5077609;28;20101;-83
2022/02/06 00:28:43;;;;;;;18.83;4.45;;;7.80;99.90;;;;;;5078827;28;20032;-83
2022/02/06 00:31:21;;;;;;;17.77;5.22;;;7.80;99.90;;;;;;5078533;28;20024;-83
2022/02/06 00:39:04;;;;;;;13.68;4.35;;;7.80;99.90;;;;;;5079660;28;20412;-83
2022/02/06 00:41:30;;;;;;;15.18;5.03;;;7.80;99.90;;;;;;5077594;28;20033;-83
2022/02/06 00:44:02;;;;;;;15.88;5.45;;;7.90;99.90;;;;;;5077142;28;20024;-83
2022/02/06 00:46:28;;;;;;;16.88;6.25;;;7.90;99.90;;;;;;5045416;28;20032;-83
2022/02/06 00:48:57;;;;;;;17.55;4.97;;;7.90;99.90;;;;;;5060186;28;20427;-83
2022/02/06 00:51:34;;;;;;;14.27;4.25;;;7.90;99.90;;;;;;5077016;28;20464;-84
2022/02/06 00:53:59;;;;;;;18.17;4.65;;;7.90;99.90;;;;;;5076799;28;20031;-83
2022/02/06 00:56:25;;;;;;;16.33;4.22;;;7.90;99.90;;;;;;5043787;28;20034;-84
2022/02/06 00:58:51;;;;;;;15.05;4.55;;;7.90;99.90;;;;;;5076648;28;20026;-83
2022/02/06 01:01:16;;;;;;;18.10;5.25;;;7.90;99.90;;;;;;5060181;28;20043;-83
2022/02/06 01:03:42;;;;;;;16.00;4.43;;;7.90;99.90;;;;;;5060158;28;20028;-84
2022/02/06 01:06:07;;;;;;;14.75;5.03;;;7.90;99.90;;;;;;5076598;28;20036;-84
2022/02/06 01:08:34;;;;;;;18.80;5.05;;;7.90;99.90;;;;;;5094638;28;20032;-84
2022/02/06 01:11:03;;;;;;;19.17;5.72;;;7.90;99.90;;;;;;5076421;28;20036;-83
2022/02/06 01:13:37;;;;;;;8.88;4.32;;;7.90;99.90;;;;;;5094680;28;20039;-83
2022/02/06 01:16:24;;;;;;;16.33;4.78;;;7.90;99.90;;;;;;5060892;28;20438;-83
2022/02/06 01:19:13;;;;;;;16.30;4.57;;;7.90;99.90;;;;;;5094166;28;20020;-91
2022/02/06 01:29:12;;;;;;;18.45;4.75;;;7.80;99.90;;;;;;5076100;28;20083;-84
2022/02/06 01:34:12;;;;;;;12.02;4.15;;;7.80;99.90;;;;;;5073550;28;20060;-84
2022/02/06 01:36:45;;;;;;;17.77;5.35;;;7.80;99.90;;;;;;5036291;28;20049;-83
2022/02/06 01:39:45;;;;;;;11.88;5.07;;;7.90;99.90;;;;;;5054107;28;20351;-84
2022/02/06 01:42:17;;;;;;;19.70;4.80;;;7.90;99.90;;;;;;5023594;28;20024;-84
2022/02/06 01:57:25;;;;;;;15.55;4.88;;;7.80;99.90;;;;;;5039083;28;20435;-84
2022/02/06 02:01:32;;;;;;;19.33;4.75;;;7.90;99.90;;;;;;5053192;28;20068;-83
2022/02/06 02:06:54;;;;;;;11.32;3.80;;;7.90;99.90;;;;;;5019943;28;20071;-85
2022/02/06 02:44:46;;;;;;;9.43;3.50;;;8.00;99.90;;;;;;5056917;28;20511;-85
2022/02/06 02:49:33;;;;;;;11.55;3.75;;;8.00;99.90;;;;;;5073095;28;20048;-83
2022/02/06 02:52:04;;;;;;;13.27;4.43;;;8.00;99.90;;;;;;5055051;28;20025;-84
2022/02/06 02:54:32;;;;;;;10.30;4.30;;;8.10;99.90;;;;;;5055663;28;20024;-84
2022/02/06 02:57:07;;;;;;;13.57;4.43;;;8.00;99.90;;;;;;5054881;28;20449;-84
2022/02/06 02:59:52;;;;;;;10.98;3.60;;;8.00;99.90;;;;;;5056190;28;20037;-84
2022/02/06 03:02:18;;;;;;;11.38;3.83;;;8.00;99.90;;;;;;5057553;28;20067;-84
2022/02/06 03:04:49;;;;;;;12.52;3.72;;;8.00;99.90;;;;;;5053996;28;20469;-84
2022/02/06 03:07:14;;;;;;;;;;;8.00;99.90;;;;;;5052911;28;20025;-84
2022/02/06 03:09:43;;;;;;;12.27;3.85;;;8.00;99.90;;;;;;5050302;28;19919;-84
2022/02/06 03:12:13;;;;;;;8.40;3.63;;;8.00;99.90;;;;;;5018565;28;20458;-84
2022/02/06 03:14:48;;;;;;;11.10;4.00;;;7.90;99.90;;;;;;5034602;28;20505;-84
2022/02/06 03:17:31;;;;;;;11.18;3.97;;;7.90;99.90;;;;;;5035659;28;20132;-83
2022/02/06 03:20:05;;;;;;;10.10;4.05;;;8.00;99.90;;;;;;5034491;28;20025;-85
2022/02/06 03:22:35;;;;;;;11.55;4.20;;;7.90;99.90;;;;;;5068392;28;20108;-84
2022/02/06 03:25:06;;;;;;;11.43;3.42;;;8.00;99.90;;;;;;5022582;28;20032;-84
2022/02/06 03:27:32;;;;;;;12.93;3.95;;;7.90;99.90;;;;;;5055744;28;20029;-84
2022/02/06 03:30:02;;;;;;;9.48;3.45;;;8.00;99.90;;;;;;5055137;28;20028;-83
2022/02/06 03:32:28;;;;;;;11.50;4.03;;;8.00;99.90;;;;;;5054059;28;20025;-84
2022/02/06 03:34:54;;;;;;;9.85;3.53;;;8.00;99.90;;;;;;5072323;28;20044;-85
2022/02/06 03:37:19;;;;;;;10.13;3.92;;;8.00;99.90;;;;;;5054210;28;20501;-84
2022/02/06 03:39:50;;;;;;;12.25;3.85;;;8.00;99.90;;;;;;5054504;28;20461;-84
2022/02/06 03:42:17;;;;;;;;;;;7.90;99.90;;;;;;5055611;28;20036;-84
2022/02/06 03:44:48;;;;;;;14.07;3.80;;;7.90;99.90;;;;;;5074177;28;19917;-84
2022/02/06 03:47:19;;;;;;;9.90;3.78;;;7.90;99.90;;;;;;5057527;28;20043;-85
2022/02/06 03:52:44;;;;;;;8.98;3.08;;;7.90;99.90;;;;;;5073067;28;19904;-84
2022/02/06 03:55:18;;;;;;;8.75;3.45;;;7.80;99.90;;;;;;5059038;28;20035;-85
2022/02/06 03:57:43;;;;;;;10.93;3.55;;;7.80;99.90;;;;;;5059126;28;20067;-84
2022/02/06 04:00:09;;;;;;;11.63;3.85;;;7.90;99.90;;;;;;5058281;28;20064;-84
2022/02/06 04:02:35;;;;;;;9.50;3.17;;;7.90;99.90;;;;;;5041130;28;20028;-85
2022/02/06 04:05:01;;;;;;;13.27;4.50;;;7.90;99.90;;;;;;5064187;28;20326;-84
2022/02/06 04:07:26;;;;;;;8.85;3.40;;;7.90;99.90;;;;;;5069853;28;20676;-83
2022/02/06 04:09:55;;;;;;;7.90;3.45;;;7.90;99.90;;;;;;5057714;28;20112;-84
2022/02/06 04:12:23;;;;;;;11.38;4.03;;;7.90;99.90;;;;;;5071407;28;20028;-84
2022/02/06 04:14:58;;;;;;;8.70;3.40;;;7.90;99.90;;;;;;5048792;28;20020;-85
2022/02/06 04:17:29;;;;;;;11.65;3.65;;;7.90;99.90;;;;;;5064305;28;20056;-85
2022/02/06 04:19:55;;;;;;;9.15;3.58;;;7.90;99.90;;;;;;5073963;28;20024;-85
2022/02/06 04:22:22;;;;;;;14.35;3.88;;;7.90;99.90;;;;;;5073982;28;20035;-84
2022/02/06 04:24:48;;;;;;;9.43;3.88;;;7.90;99.90;;;;;;5074165;28;20029;-85
2022/02/06 04:27:14;;;;;;;9.25;3.42;;;7.90;99.90;;;;;;5075160;28;20051;-89
2022/02/06 04:29:40;;;;;;;10.23;4.03;;;7.90;99.90;;;;;;5074676;28;20123;-83
2022/02/06 04:32:07;;;;;;;7.93;3.67;;;7.90;99.90;;;;;;5057505;28;20118;-84
2022/02/06 04:34:34;;;;;;;9.30;3.65;;;7.90;99.90;;;;;;5057406;28;20388;-84
2022/02/06 04:45:20;;;;;;;11.15;4.18;;;8.00;99.90;;;;;;5074918;28;20037;-84
2022/02/06 04:50:58;;;;;;;11.13;4.30;;;8.00;99.90;;;;;;5074002;28;20098;-85
2022/02/06 05:14:45;;;;;;;13.05;4.97;;;8.10;99.90;;;;;;5073406;28;20126;-83
2022/02/06 05:28:04;;;;;;;17.75;4.78;;;8.10;99.90;;;;;;5073899;28;20055;-85
2022/02/06 05:30:47;;;;;;;10.15;5.65;;;8.10;99.90;;;;;;5048778;28;20480;-85
2022/02/06 05:33:12;;;;;;;15.35;6.07;;;8.20;99.90;;;;;;5058858;28;20060;-85
2022/02/06 05:35:39;;;;;;;15.45;5.90;;;8.20;99.90;;;;;;5072635;28;20029;-85
2022/02/06 05:38:05;;;;;;;14.73;6.57;;;8.20;99.90;;;;;;5072619;28;20051;-85
2022/02/06 05:40:30;;;;;;;17.83;6.68;;;8.20;99.90;;;;;;5072142;28;20389;-85
2022/02/06 05:42:56;;;;;;;14.10;6.20;;;8.20;99.90;;;;;;5072448;28;20032;-84
2022/02/06 05:45:22;;;;;;;16.02;6.05;;;8.30;99.90;;;;;;5072593;28;20045;-84
2022/02/06 05:47:47;;;;;;;17.38;7.22;;;8.30;99.90;;;;;;5055555;28;20025;-84
2022/02/06 05:50:18;;;;;;;16.45;7.65;;;8.30;99.90;;;;;;5055931;28;20039;-84
2022/02/06 05:52:44;;;;;;;15.15;7.13;;;8.30;99.90;;;;;;5073524;28;20039;-85
2022/02/06 05:55:10;;;;;;;20.05;6.93;;;8.40;99.90;;;;;;5073780;28;20107;-85
2022/02/06 05:57:37;;;;;;;20.60;7.50;;;8.40;99.90;;;;;;5072097;28;20074;-85
2022/02/06 06:00:04;;;;;;;22.77;7.93;;;8.40;99.90;;;;;;5056053;28;20060;-85
2022/02/06 06:02:30;;;;;;;18.70;7.45;;;8.40;99.90;;;;;;5055918;28;20069;-85
2022/02/06 06:04:56;;;;;;;18.58;6.22;;;8.40;99.90;;;;;;5055959;28;20046;-84
2022/02/06 06:07:22;;;;;;;16.50;7.13;;;8.40;99.90;;;;;;5072094;28;20079;-84
2022/02/06 06:09:48;;;;;;;15.90;6.57;;;8.40;99.90;;;;;;5055731;28;20025;-85
2022/02/06 06:12:14;;;;;;;18.17;7.35;;;8.50;99.90;;;;;;5072437;28;20027;-84
2022/02/06 06:14:41;;;;;;;16.75;6.80;;;8.50;99.90;;;;;;5055400;28;20116;-85
2022/02/06 06:17:07;;;;;;;16.75;7.47;;;8.50;99.90;;;;;;5055836;28;20037;-85
2022/02/06 06:19:34;;;;;;;16.17;7.57;;;8.40;99.90;;;;;;5055448;28;20027;-85
2022/02/06 06:22:05;;;;;;;14.02;7.50;;;8.50;99.90;;;;;;5055907;28;20024;-84
2022/02/06 06:24:31;;;;;;;14.20;6.32;;;8.50;99.90;;;;;;5039849;28;20016;-85
2022/02/06 06:26:56;;;;;;;15.95;7.10;;;8.40;99.90;;;;;;5073107;28;20040;-85
2022/02/06 06:29:22;;;;;;;17.20;7.13;;;8.40;99.90;;;;;;5055936;28;20028;-85
2022/02/06 06:31:48;;;;;;;14.10;6.18;;;8.50;99.90;;;;;;5022445;28;20032;-85
2022/02/06 06:34:14;;;;;;;14.93;7.22;;;8.40;99.90;;;;;;5038847;28;20027;-85
2022/02/06 06:36:40;;;;;;;12.90;6.13;;;8.50;99.90;;;;;;5054817;28;20046;-85
2022/02/06 06:39:06;;;;;;;14.65;6.07;;;8.50;99.90;;;;;;5055176;28;20116;-85
2022/02/06 06:41:32;;;;;;;12.65;7.10;;;8.40;99.90;;;;;;5071884;28;20469;-86
2022/02/06 06:43:58;;;;;;;12.05;6.53;;;8.40;99.90;;;;;;5072219;28;20082;-85
2022/02/06 06:46:24;;;;;;;9.60;6.45;;;8.50;99.90;;;;;;5055255;28;20461;-85
2022/02/06 06:48:50;;;;;;;14.68;7.60;;;8.50;99.90;;;;;;5071436;28;20087;-85
2022/02/06 06:51:15;;;;;;;9.55;5.85;;;8.50;99.90;;;;;;5072059;28;20028;-85
2022/02/06 06:53:45;;;;;;;11.15;6.57;;;8.50;99.90;;;;;;5055240;28;20020;-85
2022/02/06 06:56:16;;;;;;;10.55;5.72;;;8.40;99.90;;;;;;5072130;28;20428;-85
2022/02/06 06:58:46;;;;;;;12.70;6.90;;;8.40;99.90;;;;;;5055059;28;20098;-85
2022/02/06 07:03:50;;;;;;;13.25;6.00;;;8.40;99.90;;;;;;5072165;28;20024;-85
2022/02/06 07:06:15;;;;;;;10.93;5.45;;;8.40;99.90;;;;;;5055236;28;20543;-85
2022/02/06 07:08:41;;;;;;;11.30;6.28;;;8.40;99.90;;;;;;5055101;28;20454;-86
2022/02/06 07:11:09;;;;;;;11.15;6.00;;;8.40;99.90;;;;;;5072158;28;20111;-85
2022/02/06 07:13:35;;;;;;;11.10;5.97;;;8.40;99.90;;;;;;5038402;28;20024;-90
2022/02/06 07:16:01;;;;;;;10.85;6.97;;;8.40;99.90;;;;;;5055208;28;20120;-84
2022/02/06 07:18:26;;;;;;;11.25;6.35;;;8.40;99.90;;;;;;5073876;28;20057;-85
2022/02/06 07:20:52;;;;;;;10.43;6.10;;;8.40;99.90;;;;;;5059329;28;20040;-86
2022/02/06 07:23:21;;;;;;;11.50;6.70;;;8.40;99.90;;;;;;5042375;28;20032;-85
2022/02/06 07:25:50;;;;;;;12.18;6.82;;;8.40;99.90;;;;;;5058553;28;20457;-86
2022/02/06 07:28:18;;;;;;;10.55;6.28;;;8.40;99.90;;;;;;5058899;28;20036;-85
2022/02/06 07:30:47;;;;;;;10.55;6.75;;;8.40;99.90;;;;;;5076017;28;20115;-85
2022/02/06 07:33:14;;;;;;;9.35;6.85;;;8.40;99.90;;;;;;5058045;28;20685;-86
2022/02/06 07:35:41;;;;;;;9.82;5.65;;;8.40;99.90;;;;;;5058233;28;20029;-86
2022/02/06 07:38:07;;;;;;;11.25;6.32;;;8.40;99.90;;;;;;5058183;28;20060;-85
2022/02/06 07:40:36;;;;;;;11.57;6.57;;;8.50;99.90;;;;;;5075366;28;20027;-87
2022/02/06 07:43:02;;;;;;;12.18;6.43;;;8.50;99.90;;;;;;5074314;28;20057;-85
2022/02/06 07:45:27;;;;;;;10.90;6.55;;;8.50;99.90;;;;;;5074536;28;20455;-85
2022/02/06 07:47:53;;;;;;;11.98;6.82;;;8.50;99.90;;;;;;5058150;28;20087;-85
2022/02/06 07:50:19;;;;;;;14.48;6.63;;;8.50;99.90;;;;;;5074844;28;20025;-85
2022/02/06 07:52:44;;;;;;;14.27;7.20;;;8.40;99.90;;;;;;5058378;28;20056;-86
2022/02/06 07:55:11;;;;;;;12.20;6.07;;;8.50;99.90;;;;;;5058384;28;20380;-85
2022/02/06 07:57:38;;;;;;;11.68;6.75;;;8.50;99.90;;;;;;5075037;28;20056;-85
2022/02/06 08:00:06;;;;;;;14.55;6.90;;;8.50;99.90;;;;;;5074571;28;20024;-86
2022/02/06 08:02:32;;;;;;;11.40;7.13;;;8.50;99.90;;;;;;5041268;28;20090;-85
2022/02/06 08:04:59;;;;;;;10.98;6.90;;;8.50;99.90;;;;;;5057769;28;20506;-85
2022/02/06 08:07:24;;;;;;;10.50;6.30;;;8.50;99.90;;;;;;5057718;28;20029;-85
2022/02/06 08:09:56;;;;;;;14.07;7.00;;;8.50;99.90;;;;;;5074340;28;20040;-85
2022/02/06 08:12:33;;;;;;;11.65;6.97;;;8.60;99.90;;;;;;5049818;28;20035;-86
2022/02/06 08:15:03;;;;;;;12.85;7.43;;;8.60;99.90;;;;;;5056516;28;20043;-86
2022/02/06 08:17:31;;;;;;;14.75;8.38;;;8.60;99.90;;;;;;5074528;28;20066;-87
2022/02/06 08:19:59;;;;;;;13.88;8.15;;;8.60;99.90;;;;;;5073401;28;20036;-85
2022/02/06 08:22:26;;;;;;;13.48;8.18;;;8.60;99.90;;;;;;5074497;28;20512;-85
2022/02/06 08:24:53;;;;;;;16.38;7.93;;;8.60;99.90;;;;;;5074517;28;20021;-86
2022/02/06 08:27:24;;;;;;;17.30;8.57;;;8.70;99.90;;;;;;5057482;28;20052;-85
2022/02/06 08:29:49;;;;;;;13.27;8.10;;;8.70;99.90;;;;;;5074306;28;20118;-86
2022/02/06 08:32:19;;;;;;;14.18;7.38;;;8.60;99.90;;;;;;5057580;28;20049;-86
2022/02/06 08:34:45;;;;;;;12.27;7.18;;;8.70;99.90;;;;;;5074527;28;20040;-86
2022/02/06 08:37:11;;;;;;;15.77;8.02;;;8.60;99.90;;;;;;5074109;28;20049;-86
2022/02/06 08:39:38;;;;;;;13.68;7.10;;;8.60;99.90;;;;;;5075966;28;20369;-85
2022/02/06 08:42:08;;;;;;;13.82;6.78;;;8.70;99.90;;;;;;5057930;28;20029;-86
2022/02/06 08:44:35;;;;;;;9.43;5.45;;;8.70;99.90;;;;;;5058278;28;20112;-85
2022/02/06 08:47:01;;;;;;;9.18;5.65;;;8.70;99.90;;;;;;5074266;28;20075;-85
2022/02/06 08:49:27;;;;;;;8.75;4.03;;;8.70;99.90;;;;;;5057639;28;20424;-85
2022/02/06 08:51:53;;;;;;;8.52;4.63;;;8.70;99.90;;;;;;5074011;28;20481;-86
2022/02/06 08:54:24;;;;;;;9.52;3.88;;;8.60;99.90;;;;;;5057255;28;20544;-85
2022/02/06 08:56:51;;;;;;;8.18;4.05;;;8.60;99.90;;;;;;5058182;28;20123;-86
2022/02/06 08:59:16;;;;;;;6.97;3.05;;;8.60;99.90;;;;;;5074075;28;20472;-85
2022/02/06 09:01:42;;;;;;;7.20;3.55;;;8.60;99.90;;;;;;5057588;28;20127;-86
2022/02/06 09:04:08;;;;;;;5.40;3.17;;;8.60;99.90;;;;;;5057228;28;20071;-86
2022/02/06 09:06:36;;;;;;;7.05;3.60;;;8.60;99.90;;;;;;5073660;28;20059;-85
2022/02/06 09:09:03;;;;;;;6.10;3.15;;;8.60;99.90;;;;;;5040805;28;20086;-86
2022/02/06 09:11:30;;;;;;;4.32;2.88;;;8.60;99.90;;;;;;5073854;28;20028;-86
2022/02/06 09:13:56;;;;;;;5.38;3.10;;;8.60;99.90;;;;;;5057296;28;20032;-85
2022/02/06 09:16:23;;;;;;;6.57;3.70;;;8.60;99.90;;;;;;5073692;28;20021;-86
2022/02/06 09:18:50;;;;;;;5.40;3.70;;;8.60;99.90;;;;;;5057288;28;20476;-87
2022/02/06 09:21:16;;;;;;;8.57;3.60;;;8.60;99.90;;;;;;5073415;28;20029;-86
2022/02/06 09:23:42;;;;;;;7.65;3.80;;;8.60;99.90;;;;;;5056850;28;20025;-86
2022/02/06 09:26:08;;;;;;;6.68;4.05;;;8.60;99.90;;;;;;5056613;28;20094;-85
2022/02/06 09:28:34;;;;;;;6.97;4.10;;;8.60;99.90;;;;;;5053564;28;20029;-86
2022/02/06 09:31:00;;;;;;;7.45;3.60;;;8.60;99.90;;;;;;5056460;28;20553;-87
2022/02/06 09:35:51;;;;;;;7.82;3.83;;;8.50;99.90;;;;;;5056893;28;20037;-85
2022/02/06 09:38:17;;;;;;;8.43;3.67;;;8.60;99.90;;;;;;5043835;28;20044;-85
2022/02/06 09:40:47;;;;;;;6.68;3.63;;;8.60;99.90;;;;;;5054700;28;20086;-88
2022/02/06 09:43:14;;;;;;;8.23;3.15;;;8.70;99.90;;;;;;5054476;28;20024;-86
2022/02/06 09:45:41;;;;;;;6.57;3.78;;;8.70;99.90;;;;;;5055679;28;20119;-86
2022/02/06 09:48:12;;;;;;;6.60;3.53;;;8.60;99.90;;;;;;5056327;28;20021;-85
2022/02/06 09:50:38;;;;;;;8.50;3.33;;;8.70;99.90;;;;;;5056369;28;20102;-85
2022/02/06 09:53:04;;;;;;;7.32;3.97;;;8.70;99.90;;;;;;5056614;28;20085;-86
2022/02/06 09:55:30;;;;;;;5.43;2.80;;;8.70;99.90;;;;;;5023589;28;20063;-88
2022/02/06 09:58:44;;;;;;;7.32;3.40;;;8.70;99.90;;;;;;5020177;28;20492;-86
2022/02/06 10:00:54;;;;;;;6.78;3.47;;;8.70;99.90;;;;;;5054101;28;20029;-86
2022/02/06 10:03:30;;;;;;;11.13;3.60;;;8.70;99.90;;;;;;5073285;28;20476;-86
2022/02/06 10:05:59;;;;;;;7.15;3.10;;;8.70;99.90;;;;;;5055497;28;20528;-87
2022/02/06 10:08:40;;;;;;;7.88;3.65;;;8.80;99.90;;;;;;5056537;28;20029;-87
2022/02/06 10:11:13;;;;;;;5.93;2.90;;;8.80;99.90;;;;;;5056990;28;20345;-87
2022/02/06 10:13:40;;;;;;;8.68;3.35;;;8.80;99.90;;;;;;5074603;28;20379;-87
2022/02/06 10:16:08;;;;;;;7.38;3.22;;;8.80;99.90;;;;;;5056729;28;20024;-87
2022/02/06 10:18:39;;;;;;;5.63;2.88;;;8.80;99.90;;;;;;5056708;28;20024;-87
2022/02/06 10:21:13;;;;;;;6.75;2.78;;;8.80;99.90;;;;;;5074469;28;20103;-86
2022/02/06 10:23:58;;;;;;;5.95;3.15;;;8.80;99.90;;;;;;5057201;28;20017;-87
2022/02/06 10:26:53;;;;;;;6.47;2.42;;;8.80;99.90;;;;;;5042843;28;20377;-87
2022/02/06 10:32:01;;;;;;;6.95;2.75;;;8.80;99.90;;;;;;5074686;28;20021;-87
2022/02/06 10:34:34;;;;;;;8.55;2.78;;;8.80;99.90;;;;;;5056241;28;20031;-88
2022/02/06 10:37:22;;;;;;;;;;;;;;;;;;;;;
2022/02/06 10:40:05;;;;;;;4.10;1.95;;;8.80;99.90;;;;;;5052972;28;20119;-88
2022/02/06 10:42:41;;;;;;;6.10;2.28;;;8.80;99.90;;;;;;5057301;28;20021;-88
2022/02/06 10:45:37;;;;;;;4.55;2.33;;;8.80;99.90;;;;;;5057928;28;20020;-90
2022/02/06 10:49:09;;;;;;;;;;;;;;;;;;;;;
2022/02/06 10:51:58;;;;;;;6.15;2.28;;;8.80;99.90;;;;;;5075576;28;20443;-90
2022/02/06 11:11:09;;;;;;;6.07;2.75;;;8.80;99.90;;;;;;5072030;28;20102;-88
2022/02/06 11:13:48;;;;;;;5.22;1.90;;;8.80;99.90;;;;;;5075848;28;20103;-88
2022/02/06 11:19:25;;;;;;;5.68;2.40;;;8.80;99.90;;;;;;5079503;28;20040;-89
2022/02/06 11:22:17;;;;;;;5.90;2.35;;;8.80;99.90;;;;;;5035519;28;20025;-91
2022/02/06 11:24:44;;;;;;;2.70;1.92;;;8.70;99.90;;;;;;5025645;28;20446;-90
2022/02/06 11:27:10;;;;;;;5.40;2.58;;;8.70;99.90;;;;;;5045463;28;20043;-87
2022/02/06 11:29:38;;;;;;;3.95;1.90;;;8.80;99.90;;;;;;5037250;28;20112;-90
2022/02/06 11:35:13;;;;;;;;;;;8.80;99.90;;;;;;5037412;28;20120;-87
2022/02/06 11:51:10;;;;;;;6.30;2.20;;;8.80;99.90;;;;;;5062229;28;20029;-90
2022/02/06 11:54:12;;;;;;;;;;;;;;;;;;;;;
2022/02/06 11:56:55;;;;;;;3.97;1.27;;;8.80;99.90;;;;;;5052143;28;20092;-92
2022/02/06 11:59:27;;;;;;;3.08;0.93;;;8.90;99.90;;;;;;5038094;28;20037;-90
2022/02/06 12:02:13;;;;;;;5.20;0.85;;;8.80;99.90;;;;;;5035831;28;20060;-88
2022/02/06 12:04:59;;;;;;;2.17;0.80;;;8.80;99.90;;;;;;5035323;28;20044;-88
2022/02/06 12:08:13;;;;;;;4.05;0.75;;;8.70;99.90;;;;;;5059786;28;20063;-88
2022/02/06 12:11:01;;;;;;;4.22;0.65;;;8.60;99.90;;;;;;5048615;28;20053;-89
2022/02/06 12:13:44;;;;;;;;;;;;;;;;;;;;;
2022/02/06 12:20:08;;;;;;;2.15;0.45;;;8.20;99.90;;;;;;5044370;28;20028;-89
2022/02/06 12:22:40;;;;;;;2.50;0.47;;;8.20;99.90;;;;;;5000484;28;20130;-88
2022/02/06 12:25:25;;;;;;;;;;;8.10;99.90;;;;;;5039239;28;20096;-88
2022/02/06 12:28:17;;;;;;;2.38;0.50;;;8.00;99.90;;;;;;5055941;28;19928;-89
2022/02/06 12:30:44;;;;;;;1.95;0.57;;;7.90;99.90;;;;;;5019237;28;20052;-90
2022/02/06 12:33:24;;;;;;;2.85;0.85;;;7.90;99.90;;;;;;5039862;28;20024;-87
2022/02/06 12:38:40;;;;;;;1.98;0.50;;;7.80;99.90;;;;;;5073244;28;20076;-88
2022/02/06 12:41:33;;;;;;;3.38;0.50;;;7.90;99.90;;;;;;5059799;28;20033;-88
2022/02/06 12:44:04;;;;;;;1.67;0.52;;;7.90;99.90;;;;;;5079006;28;20094;-88
2022/02/06 12:46:31;;;;;;;4.63;0.90;;;7.80;99.90;;;;;;5061518;28;20036;-88
2022/02/06 12:49:03;;;;;;;3.03;1.10;;;7.80;99.90;;;;;;5083818;28;20427;-87
2022/02/06 12:51:31;;;;;;;9.93;1.58;;;7.80;99.90;;;;;;5072890;28;20044;-87
2022/02/06 12:54:11;;;;;;;6.63;1.23;;;7.80;99.90;;;;;;5072208;28;20146;-86
2022/02/06 12:56:40;;;;;;;8.50;1.27;;;7.80;99.90;;;;;;5073498;28;20021;-89
2022/02/06 12:59:10;;;;;;;4.80;1.23;;;7.80;99.90;;;;;;5070939;28;20020;-87
2022/02/06 13:01:46;;;;;;;10.10;1.10;;;7.80;99.90;;;;;;5070562;28;20024;-87
2022/02/06 13:04:17;;;;;;;9.30;1.42;;;7.80;99.90;;;;;;5067111;28;20275;-88
2022/02/06 13:06:48;;;;;;;4.93;1.00;;;7.80;99.90;;;;;;5067775;28;20020;-88
2022/02/06 13:09:32;;;;;;;6.45;0.93;;;7.80;99.90;;;;;;5067551;28;20120;-87
2022/02/06 13:12:35;;;;;;;7.80;1.00;;;7.80;99.90;;;;;;5062654;28;20021;-86
2022/02/06 13:15:27;;;;;;;7.13;1.40;;;7.70;99.90;;;;;;5079478;28;20021;-94
2022/02/06 13:18:08;;;;;;;6.20;0.95;;;7.70;99.90;;;;;;5073865;28;20025;-88
2022/02/06 13:21:17;;;;;;;10.57;1.25;;;7.70;99.90;;;;;;5061540;28;20016;-90
2022/02/06 13:23:44;;;;;;;7.68;1.20;;;7.70;99.90;;;;;;5058625;28;20054;-88
2022/02/06 13:26:28;;;;;;;12.10;1.45;;;7.70;99.90;;;;;;5047638;28;20039;-90
2022/02/06 13:29:09;;;;;;;8.63;1.25;;;7.70;99.90;;;;;;5063601;28;20036;-91
2022/02/06 13:31:55;;;;;;;7.72;1.58;;;7.80;99.90;;;;;;5049289;28;20060;-90
2022/02/06 13:34:40;;;;;;;6.30;1.50;;;7.80;99.90;;;;;;5052607;28;20072;-89
2022/02/06 13:37:13;;;;;;;8.25;1.30;;;7.80;99.90;;;;;;5054148;28;20025;-88
2022/02/06 13:39:50;;;;;;;8.38;1.52;;;7.80;99.90;;;;;;5054867;28;20021;-91
2022/02/06 13:42:18;;;;;;;8.80;1.15;;;7.80;99.90;;;;;;5072633;28;20021;-88
2022/02/06 13:45:01;;;;;;;8.70;1.20;;;7.80;99.90;;;;;;5073969;28;20115;-88
2022/02/06 13:47:27;;;;;;;13.15;1.30;;;7.80;99.90;;;;;;5070694;28;20024;-88
2022/02/06 13:49:53;;;;;;;7.82;1.52;;;7.80;99.90;;;;;;5067614;28;20029;-87
2022/02/06 13:52:18;;;;;;;9.02;2.20;;;7.80;99.90;;;;;;5047164;28;20029;-86
2022/02/06 13:54:49;;;;;;;10.18;2.17;;;7.80;99.90;;;;;;5055247;28;20086;-87
2022/02/06 13:57:15;;;;;;;13.55;2.35;;;7.80;99.90;;;;;;5073344;28;20024;-88
2022/02/06 13:59:45;;;;;;;11.05;3.00;;;7.80;99.90;;;;;;5048891;28;20465;-87
2022/02/06 14:02:12;;;;;;;10.68;4.15;;;7.80;99.90;;;;;;5050973;28;20020;-86
2022/02/06 14:04:41;;;;;;;10.13;1.88;;;7.90;99.90;;;;;;5055049;28;20020;-88
2022/02/06 14:07:30;;;;;;;8.43;1.85;;;7.90;99.90;;;;;;5052537;28;20032;-86
2022/02/06 14:12:29;;;;;;;18.13;4.28;;;7.90;99.90;;;;;;5074797;28;20075;-87
2022/02/06 14:14:58;;;;;;;12.38;2.50;;;7.90;99.90;;;;;;5057845;28;20480;-86
2022/02/06 14:17:29;;;;;;;10.20;2.83;;;7.90;99.90;;;;;;5056514;28;20067;-86
2022/02/06 14:19:58;;;;;;;13.65;2.55;;;7.90;99.90;;;;;;5073803;28;20032;-86
2022/02/06 14:22:36;;;;;;;15.90;3.92;;;7.90;99.90;;;;;;5055399;28;20039;-86
2022/02/06 14:25:15;;;;;;;15.63;4.10;;;8.00;99.90;;;;;;5072799;28;20025;-86
2022/02/06 14:27:44;;;;;;;14.02;2.15;;;8.00;99.90;;;;;;5055365;28;20469;-86
2022/02/06 14:30:16;;;;;;;9.18;2.30;;;8.00;99.90;;;;;;5055549;28;20028;-88
2022/02/06 14:33:08;;;;;;;12.00;2.20;;;8.00;99.90;;;;;;5055600;28;20079;-88
2022/02/06 14:35:51;;;;;;;9.00;2.28;;;8.00;99.90;;;;;;5046824;28;20035;-87
2022/02/06 14:38:34;;;;;;;15.20;2.20;;;8.00;99.90;;;;;;5055549;28;20055;-87
2022/02/06 14:43:54;;;;;;;11.95;1.98;;;8.00;99.90;;;;;;5074377;28;20063;-88
2022/02/06 14:46:26;;;;;;;13.18;2.50;;;8.00;99.90;;;;;;5056508;28;20143;-87
2022/02/06 14:48:51;;;;;;;12.55;2.13;;;8.10;99.90;;;;;;5055429;28;20020;-87
2022/02/06 14:51:19;;;;;;;9.38;1.70;;;8.00;99.90;;;;;;5030842;28;20025;-86
2022/02/06 14:53:44;;;;;;;10.30;2.50;;;8.00;99.90;;;;;;5054319;28;20021;-87
2022/02/06 14:56:11;;;;;;;6.35;1.85;;;8.00;99.90;;;;;;5055318;28;20031;-87
2022/02/06 14:58:37;;;;;;;13.02;4.80;;;8.00;99.90;;;;;;5072977;28;20052;-87
2022/02/06 15:01:03;;;;;;;12.50;2.20;;;8.00;99.90;;;;;;5055097;28;20067;-87
2022/02/06 15:03:29;;;;;;;6.93;1.85;;;8.10;99.90;;;;;;5022192;28;20028;-86
2022/02/06 15:05:55;;;;;;;6.07;2.30;;;8.10;99.90;;;;;;5054947;28;20432;-86
2022/02/06 15:08:21;;;;;;;9.45;1.80;;;8.10;99.90;;;;;;5055102;28;20029;-86
2022/02/06 15:10:47;;;;;;;4.70;1.58;;;8.10;99.90;;;;;;5054995;28;20031;-87
2022/02/06 15:13:14;;;;;;;11.25;2.60;;;8.10;99.90;;;;;;5038680;28;20067;-86
2022/02/06 15:15:49;;;;;;;10.90;1.80;;;8.10;99.90;;;;;;5070926;28;20108;-86
2022/02/06 15:20:54;;;;;;;12.02;2.08;;;8.10;99.90;;;;;;5073138;28;20032;-87
2022/02/06 15:23:28;;;;;;;9.23;1.90;;;8.10;99.90;;;;;;5055489;28;20036;-89
2022/02/06 15:25:55;;;;;;;9.60;2.08;;;8.10;99.90;;;;;;5032843;28;20033;-86
2022/02/06 15:28:21;;;;;;;8.13;1.65;;;8.10;99.90;;;;;;5035139;28;20500;-89
2022/02/06 15:30:49;;;;;;;8.55;1.80;;;8.10;99.90;;;;;;5034586;28;20462;-88
2022/02/06 15:33:20;;;;;;;3.78;1.30;;;8.10;99.90;;;;;;5052989;28;20124;-87
2022/02/06 15:35:46;;;;;;;;;;;8.10;99.90;;;;;;5019374;28;20546;-87
2022/02/06 15:38:16;;;;;;;10.48;1.98;;;8.10;99.90;;;;;;5052691;28;19916;-87
2022/02/06 15:40:42;;;;;;;4.40;1.38;;;8.10;99.90;;;;;;5055689;28;20029;-87
2022/02/06 15:43:09;;;;;;;9.52;1.63;;;8.10;99.90;;;;;;5038805;28;20028;-87
2022/02/06 15:45:36;;;;;;;6.82;1.73;;;8.10;99.90;;;;;;5038868;28;20029;-86
2022/02/06 15:48:18;;;;;;;;;;;;;;;;;;;;;
2022/02/06 15:50:45;;;;;;;5.53;1.70;;;8.10;99.90;;;;;;5057162;28;20377;-87
2022/02/06 15:53:12;;;;;;;11.57;2.70;;;8.10;99.90;;;;;;5040075;28;20026;-87
2022/02/06 15:55:40;;;;;;;12.10;1.70;;;8.10;99.90;;;;;;5038988;28;20029;-88
2022/02/06 15:58:08;;;;;;;9.60;2.20;;;8.10;99.90;;;;;;5038330;28;20385;-87
2022/02/06 16:00:37;;;;;;;9.35;2.30;;;8.10;99.90;;;;;;5038890;28;20031;-88
2022/02/06 16:03:05;;;;;;;9.65;1.92;;;8.10;99.90;;;;;;5022843;28;20025;-89
2022/02/06 16:05:31;;;;;;;7.10;1.63;;;8.10;99.90;;;;;;5038790;28;20039;-88
2022/02/06 16:07:56;;;;;;;5.30;1.70;;;8.10;99.90;;;;;;5038937;28;20465;-88
2022/02/06 16:10:23;;;;;;;5.65;1.63;;;8.10;99.90;;;;;;5022322;28;20032;-88
2022/02/06 16:12:51;;;;;;;5.85;1.55;;;8.00;99.90;;;;;;5038611;28;20021;-90